Willoughby Hills, Ohio
Current Conditions -  °F | °C
As of 1:45 PM on Thursday 23 Oct 2014 (Local Time) from KCGF Reporting Station
Broken Clouds Broken Clouds  
Wind Chill: 54°   Ceiling: 1400
Heat Index: 54°   Visibility: 10mi
Dew Point: 48°   Wind: 12mph
Humidity: 82%   Direction: 330°NNW
Pressure: 30.18"   Gusts: NA
Location:  41.6111°N, 81.3789°W
Report Text: KCGF 231745Z 33010KT 10SM BKN014 12/09 A3018
Loading
Personal Weather Stations






























Interactive Weather Map
Tropical Storm Tracking
New forecast layout! Learn more

10-Day Weather Forecast

Advertisements
Track Severe Weather on mobile